Tiempo atmosférico en la estación meteorológica de La Covatilla, estación de esquí, Salamanca (1960 m.)



Fecha
DESCASC
Temp. máxima en grados centígrados (hora)
DESCASC
Temp. mínima en grados centígrados (hora)
DESCASC
Temp. media en grados centígrados
DESCASC
Racha de viento máxima en m/sg (hora)
DESCASC
Velocidad máxima media en intervalos de 10 minutos(hora)
DESCASC
Precipitaciones diarias en mm
DESCASC
Precipitaciones de 00:00 a 06:00 en mm
DESCASC
Precipitaciones de 06:00 a 12:00 en mm
DESCASC
Precipitaciones de 12:00 a 18:00 en mm
DESCASC
Precipitaciones de 18:00 a 24:00 en mm
DESCASC
13-06-2019 14 (14:40) 4.9 (00:50) 9.5 17.78 (07:50) 12.22 (07:40) 0 0 0 0 0
12-06-2019 13.2 (17:50) 1.4 (03:40) 7.3 12.78 (16:10) 7.22 (16:10) 0 0 0 0 0
11-06-2019 8.4 (16:40) 1.8 (09:50) 5.1 14.44 (16:00) 8.89 (16:00) 0 0 0 0 0
10-06-2019 13.2 (18:50) 2.8 (05:50) 8 9.17 (17:40) 5.83 (20:10) 0 0 0 0 0
09-06-2019 13 (17:40) 5.9 (00:00) 9.5 17.78 (05:40) 11.11 (05:20) 0 0 0 0 0
08-06-2019 14.2 (16:30) 1.7 (00:00) 7.9 11.94 (06:20) 7.5 (05:10) 0 0 0 0 0
07-06-2019 9.8 (18:20) -1.8 (-00:0) 4 21.11 (00:10) 13.33 (01:00) 3.2 3.2 0 0 0
06-06-2019 10 (14:20) -0.1 (00:00) 4.9 25.28 (23:00) 16.11 (21:40) 5.2 0 0 0 5.2
05-06-2019 7.9 (18:20) -0.6 (-00:0) 3.7 11.39 (09:40) 6.94 (18:30) 0.2 0.2 0 0 0
04-06-2019 13.9 (12:30) 4.8 (00:00) 9.3 21.11 (03:50) 12.78 (04:20) 0 0 0 0 0
03-06-2019 19.3 (16:50) 13.4 (00:00) 16.3 17.22 (22:00) 10.56 (15:40) 0 0 0 0 0
02-06-2019 21.5 (15:00) 11.2 (00:00) 16.3 13.61 (17:10) 7.78 (17:10) 0 0 0 0 0
01-06-2019 21.3 (16:00) 10.1 (00:00) 15.7 9.72 (15:30) 5.56 (15:30) 0 0 0 0 0
31-05-2019 20.9 (18:10) 9.5 (00:00) 15.2 12.5 (14:30) 7.22 (00:10) 0 0 0 0 0
30-05-2019 19.1 (16:30) 9.3 (00:00) 14.2 13.33 (02:00) 10.28 (02:00) 0 0 0 0 0
29-05-2019 14.8 (16:30) 5.9 (00:00) 10.4 13.06 (23:30) 9.72 (23:10) 0 0 0 0 0
28-05-2019 13.7 (16:20) 6.6 (00:00) 10.1 11.11 (17:40) 8.06 (23:00) 0 0 0 0 0
27-05-2019 16.9 (16:30) 8.4 (00:00) 12.6 9.72 (19:50) 5.56 (07:00) 0 0 0 0 0
26-05-2019 14.8 (17:40) 3.8 (00:00) 9.3 11.94 (08:50) 9.17 (08:50) 0 0 0 0 0
25-05-2019 12 (17:40) 3.2 (00:00) 7.6 13.33 (13:00) 9.72 (08:00) 0 0 0 0 0
24-05-2019 11.9 (16:50) 3.7 (00:00) 7.8 13.33 (12:20) 9.72 (12:30) 0 0 0 0 0
23-05-2019 15.6 (17:10) 7 (00:00) 11.3 17.5 (10:40) 10.56 (11:00) 0.2 0 0 0.2 0
22-05-2019 15.1 (18:30) 5.5 (00:00) 10.3 10.56 (18:10) 6.11 (19:40) 0 0 0 0 0
21-05-2019 13.3 (18:30) 1.2 (06:40) 7.3 8.06 (18:30) 4.44 (19:40) 0 0 0 0 0
20-05-2019 9.3 (16:00) -0.2 (03:20) 4.6 9.72 (17:10) 6.11 (16:40) 0 0 0 0 0
19-05-2019 8.6 (17:20) -1.8 (-00:0) 3.4 9.72 (17:10) 5.56 (20:00) 0 0 0 0 0
18-05-2019 4.8 (18:50) -4.3 (-00:0) 0.3 8.61 (12:20) 5 (05:00) 0 0 0 0 0
17-05-2019 4.9 (19:00) -1.6 (-00:0) 1.7 12.78 (00:30) 7.22 (00:30) 0 0 0 0 0

Gráficas

Temp. máximas Temp. mínimas Temp. medias Precipitaciones Rachas de viento máximas Velocidades máximas media en intervalos de 10 minutos

Datos horarios

Fecha y hora oficial Temperatura (ºC) Velocidad del viento (km/h) Dirección del viento Racha (km/h) Dirección de racha Precipitación (mm) Presión (hPa) Tendencia (hPa) Humedad (%)
2019-06-15 23:00:00 6.7 6 Sudeste 9 Sur 0 808.3 0.8 63
2019-06-15 22:00:00 7.9 4 Sudoeste 12 Noroeste 0 807.9 0.5 58
2019-06-15 21:00:00 11.4 3 Nordeste 17 Oeste 0 807.7 0.2 44
2019-06-15 20:00:00 12.3 10 Oeste 19 Noroeste 0 807.5 0 43
2019-06-15 19:00:00 12.8 12 Oeste 30 Noroeste 0 807.4 0 46
2019-06-15 18:00:00 12.6 14 Oeste 31 Oeste 0 807.5 0.1 46
2019-06-15 17:00:00 12.5 14 Oeste 30 Oeste 0 807.5 0.3 51
2019-06-15 16:00:00 11.5 18 Oeste 32 Noroeste 0 807.4 0.4 51
2019-06-15 15:00:00 11 13 Oeste 26 Oeste 0 807.4 0.8 55
2019-06-15 14:00:00 10.2 11 Noroeste 22 Oeste 0 807.2 1 58
2019-06-15 13:00:00 8.8 12 Oeste 22 Oeste 0 807 1.3 63
2019-06-15 12:00:00 8.5 8 Noroeste 17 Oeste 0 806.6 1.3 63
2019-06-15 11:00:00 6 4 Norte 16 Norte 0 806.2 1.3 75
2019-06-15 10:00:00 8 5 Noroeste 11 Noroeste 0 805.7 1.2 65
2019-06-15 09:00:00 6.2 6 Noroeste 12 Oeste 0 805.3 0.9 51
2019-06-15 08:00:00 4.1 8 Oeste 13 Sudoeste 0 804.9 0.5 65
2019-06-15 07:00:00 0.5 10 Sudoeste 14 Sudoeste 0 804.5 0 68
2019-06-15 06:00:00 0 12 Sudoeste 15 Sudoeste 0 804.4 -0.3 86
2019-06-15 05:00:00 -0.5 6 Sudoeste 14 Oeste 0 804.4 -0.2 87
2019-06-15 04:00:00 0.1 5 Sur 13 Sudoeste 0 804.5 -0.3 89
2019-06-15 03:00:00 0.2 9 Sudoeste 14 Sudoeste 0 804.7 0.1 90
2019-06-15 02:00:00 2 12 Sudoeste 15 Sudoeste 0 804.6 0.3 83
2019-06-15 01:00:00 2.6 12 Sudoeste 17 Sudoeste 0 804.8 1.2 84
2019-06-15 00:00:00 3 7 Oeste 20 Oeste 0 804.6 1.5 91
2019-06-14 23:00:00 3.6 12 Oeste 36 Sudoeste 0 804.3 1.6 84
2019-06-14 22:00:00 4.1 29 Sudoeste 42 Sudoeste 0 803.6 1.3 80
2019-06-14 21:00:00 5 27 Sudoeste 46 Oeste 0 803.1 1 72
2019-06-14 20:00:00 7 27 Sudoeste 44 Sudoeste 0 802.7 0.8 63
2019-06-14 19:00:00 8.5 24 Oeste 51 Oeste 0 802.3 0.5 57
2019-06-14 18:00:00 8 24 Oeste 49 Sudoeste 0 802.1 0.5 58
2019-06-14 17:00:00 7.6 24 Oeste 46 Oeste 0 801.9 0.4 66
2019-06-14 16:00:00 8.9 23 Oeste 46 Oeste 0 801.8 0.8 63
2019-06-14 15:00:00 9.2 28 Oeste 46 Oeste 0 801.6 1.2 53
2019-06-14 14:00:00 8.5 20 Oeste 34 Oeste 0 801.5 1.7 56
2019-06-14 13:00:00 8.8 18 Oeste 25 Oeste 0 801 1.2 57
2019-06-14 12:00:00 8.9 13 Oeste 22 Oeste 0 800.4 0.8 51
2019-06-14 11:00:00 10.4 9 Noroeste 30 Oeste 0 799.8 0.5 23
2019-06-14 10:00:00 8.2 12 Noroeste 28 Nordeste 0 799.8 0.1 51
2019-06-14 09:00:00 7.6 7 Norte 49 Sudoeste 0 799.6 0 55
2019-06-14 08:00:00 6.2 15 Oeste 44 Sudoeste 0 799.3 -0.2 49
2019-06-14 07:00:00 3.3 6 Sur 14 Sur 0 799.7 -0.1 57
2019-06-14 06:00:00 2.8 5 Sudoeste 31 Sur 0 799.6 -0.4 69
2019-06-14 05:00:00 7 26 Sur 44 Sur 0 799.5 -1.1 47
2019-06-14 04:00:00 7.8 26 Sur 46 Sur 0 799.8 -1.2 46
2019-06-14 03:00:00 8.1 20 Sur 32 Sur 0 800 -1.1 45
2019-06-14 02:00:00 5.5 14 Sudeste 18 Sudeste 0 800.6 -0.4 55
2019-06-14 01:00:00 7.2 13 Sudeste 20 Sudeste 0 801 0.5 44
2019-06-14 00:00:00 6.8 11 Sur 19 Sudoeste 0 801.1 1 43
2019-06-13 23:00:00 7.6 15 Sudoeste 22 Sudoeste 0 801 1.3 44
2019-06-13 22:00:00 8.6 15 Oeste 28 Oeste 0 800.5 1 41
2019-06-13 21:00:00 11.1 18 Oeste 36 Oeste 0 800.1 0.5 35
2019-06-13 20:00:00 12.5 17 Sudoeste 40 Oeste 0 799.7 0 30
2019-06-13 19:00:00 13.1 22 Oeste 41 Sudoeste 0 799.5 -0.3 26
2019-06-13 18:00:00 13.4 17 Sudoeste 41 Sudoeste 0 799.6 0 22
2019-06-13 17:00:00 12.8 12 Sudoeste 35 Sur 0 799.7 0.2 23
2019-06-13 16:00:00 12.5 13 Sudoeste 36 Sur 0 799.8 0.6 23
2019-06-13 15:00:00 13.5 8 Sudoeste 35 Oeste 0 799.6 0.5 24
2019-06-13 14:00:00 12.5 16 Oeste 36 Oeste 0 799.5 1 23
2019-06-13 13:00:00 11.3 18 Oeste 42 Oeste 0 799.2 0.8 41
2019-06-13 12:00:00 10.1 12 Oeste 45 Sudoeste 0 799.1 1.1 39
2019-06-13 11:00:00 10.9 26 Sudoeste 48 Sur 0 798.5 0.8 15
2019-06-13 10:00:00 10 29 Sudoeste 57 Sudoeste 0 798.4 0.6 9
2019-06-13 09:00:00 9.9 30 Sudoeste 55 Sudoeste 0 798 0.1 9
2019-06-13 08:00:00 9.3 36 Sudoeste 64 Sudoeste 0 797.7 -0.4 12
2019-06-13 07:00:00 8.4 36 Sudoeste 60 Sur 0 797.8 -0.7 8
2019-06-13 06:00:00 8.2 35 Sudoeste 54 Sudoeste 0 797.9 -1.2 12
2019-06-13 05:00:00 8 37 Sudoeste 53 Sudoeste 0 798.1 -1.5 15
2019-06-13 04:00:00 7.1 24 Sudoeste 41 Sudoeste 0 798.5 -1.4 28
2019-06-13 03:00:00 6.8 14 Sur 21 Sur 0 799.1 -1.2 36
2019-06-13 02:00:00 6.9 12 Sur 21 Sudoeste 0 799.6 -0.7 34
2019-06-13 01:00:00 5.7 11 Sur 17 Sur 0 799.9 -0.3 42
2019-06-13 00:00:00 6.1 12 Sudoeste 22 Sudoeste 0 800.3 0.2 41
2019-06-12 23:00:00 6.8 16 Sudoeste 22 Sudoeste 0 800.3 0.2 37
2019-06-12 22:00:00 7.7 16 Sudoeste 26 Oeste 0 800.2 0.1 37
2019-06-12 21:00:00 10.1 21 Oeste 39 Oeste 0 800.1 -0.2 31
2019-06-12 20:00:00 11.6 18 Oeste 44 Oeste 0 800.1 -0.4 30
2019-06-12 19:00:00 11.7 23 Oeste 42 Noroeste 0 800.1 -0.4 31
2019-06-12 18:00:00 12.6 21 Oeste 43 Oeste 0 800.3 -0.7 30
2019-06-12 17:00:00 12.3 24 Oeste 46 Oeste 0 800.5 -0.8 30
2019-06-12 16:00:00 11.6 23 Oeste 37 Oeste 0 800.5 -0.9 36
2019-06-12 15:00:00 10.7 21 Noroeste 44 Oeste 0 801 -0.4 36
2019-06-12 14:00:00 10.1 18 Oeste 33 Oeste 0 801.3 0.1 41
2019-06-12 13:00:00 9 13 Oeste 25 Oeste 0 801.4 0.4 47
2019-06-12 12:00:00 8 14 Noroeste 27 Oeste 0 801.4 0.7 51
2019-06-12 11:00:00 7.7 18 Oeste 30 Sudoeste 0 801.2 0.7 47
2019-06-12 10:00:00 7.3 18 Sudoeste 35 Sudoeste 0 801 0.6 46
2019-06-12 09:00:00 6.5 22 Sudoeste 34 Sudoeste 0 800.7 0.2 44
2019-06-12 08:00:00 5.3 23 Sudoeste 33 Sudoeste 0 800.5 -0.4 47
2019-06-12 07:00:00 3.8 25 Sudoeste 31 Sudoeste 0 800.4 -0.9 52
2019-06-12 06:00:00 3.1 16 Sudoeste 30 Sudoeste 0 800.5 -1.1 52
2019-06-12 05:00:00 3.5 17 Sudoeste 27 Oeste 0 800.9 -1.3 47
2019-06-12 04:00:00 3.3 15 Sudoeste 27 Sudoeste 0 801.3 -1.4 47
2019-06-12 03:00:00 2 13 Sudoeste 21 Sudoeste 0 801.6 -1.4 52
2019-06-12 02:00:00 2.1 10 Sur 14 Sudoeste 0 802.2 -0.9 61
2019-06-12 01:00:00 3.3 11 Sur 22 Sudeste 0 802.7 0.1 55
2019-06-12 00:00:00 3.2 13 Este 19 Este 0 803 0.2 55
2019-06-11 23:00:00 3 8 Este 21 Nordeste 0 803.1 0.5 52
2019-06-11 22:00:00 3.5 14 Nordeste 22 Nordeste 0 802.6 0.2 53
2019-06-11 21:00:00 5.7 16 Nordeste 33 Nordeste 0 802.8 0.5 43
2019-06-11 20:00:00 7.2 21 Nordeste 40 Nordeste 0 802.6 0.4 38
2019-06-11 19:00:00 7.7 24 Nordeste 41 Nordeste 0 802.4 0.3 37
2019-06-11 18:00:00 8.2 25 Nordeste 43 Nordeste 0 802.3 0.4 40
2019-06-11 17:00:00 8.3 28 Nordeste 49 Nordeste 0 802.2 0.6 41
2019-06-11 16:00:00 7.4 32 Nordeste 52 Nordeste 0 802.1 0.7 43
2019-06-11 15:00:00 6.6 30 Nordeste 45 Nordeste 0 801.9 0.9 50
2019-06-11 14:00:00 5.3 28 Nordeste 42 Nordeste 0 801.6 0.9 68
2019-06-11 13:00:00 4 24 Nordeste 39 Nordeste 0 801.4 0.8 84
2019-06-11 12:00:00 2.7 26 Nordeste 36 Nordeste 0 801 0.4 99
2019-06-11 11:00:00 2.5 20 Nordeste 31 Nordeste 0 800.7 0.3 100
2019-06-11 10:00:00 1.9 17 Nordeste 23 Este 0 800.6 0.1 100
2019-06-11 09:00:00 2 18 Nordeste 25 Nordeste 0 800.6 -0.2 100
2019-06-11 08:00:00 2.3 15 Nordeste 22 Nordeste 0 800.4 -0.9 99
2019-06-11 07:00:00 2.3 12 Este 15 Este 0 800.5 -1.6 99
2019-06-11 06:00:00 2.4 10 Este 23 Nordeste 0 800.8 -1.6 99
2019-06-11 05:00:00 2.9 12 Nordeste 18 Nordeste 0 801.3 -1.8 97
2019-06-11 04:00:00 3.2 5 Nordeste 19 Norte 0 802.1 -1.3 90
2019-06-11 03:00:00 4.4 5 Noroeste 14 Oeste 0 802.4 -1.6 94
2019-06-11 02:00:00 4.6 9 Noroeste 20 Noroeste 0 803.1 -1.1 95
2019-06-11 01:00:00 4.7 8 Sudoeste 15 Oeste 0 803.4 -0.5 87
2019-06-11 00:00:00 5.7 10 Oeste 18 Oeste 0 804 0.1 75
2019-06-10 23:00:00 6.9 12 Oeste 21 Sudoeste 0 804.2 0.2 55
2019-06-10 22:00:00 7.7 13 Oeste 26 Oeste 0 803.9 -0.5 45
2019-06-10 21:00:00 10.7 18 Oeste 31 Oeste 0 803.9 -0.7 33
2019-06-10 20:00:00 12.3 17 Oeste 29 Oeste 0 804 -0.9 35
2019-06-10 19:00:00 12.9 17 Oeste 31 Oeste 0 804.4 -0.7 37
2019-06-10 18:00:00 12.8 14 Oeste 33 Oeste 0 804.6 -0.7 38
2019-06-10 17:00:00 12.6 18 Oeste 29 Noroeste 0 804.9 -0.5 34
2019-06-10 16:00:00 12.6 15 Oeste 27 Oeste 0 805.1 -0.5 47
2019-06-10 15:00:00 11.4 15 Noroeste 26 Noroeste 0 805.3 -0.1 48
2019-06-10 14:00:00 11.1 13 Noroeste 22 Noroeste 0 805.4 0 53
2019-06-10 13:00:00 9.7 10 Noroeste 21 Oeste 0 805.6 0.4 64
2019-06-10 12:00:00 9.1 9 Oeste 26 Oeste 0 805.4 0.5 63
2019-06-10 11:00:00 9.4 9 Norte 19 Nordeste 0 805.4 0.8 62
2019-06-10 10:00:00 9.2 7 Nordeste 15 Nordeste 0 805.2 0.5 56
2019-06-10 09:00:00 7.7 9 Nordeste 15 Este 0 804.9 -0.1 63
2019-06-10 08:00:00 6.7 5 Este 11 Este 0 804.6 -0.2 67
2019-06-10 07:00:00 3.1 6 Sudeste 15 Sudeste 0 804.7 -0.7 82
2019-06-10 06:00:00 3.2 5 Sudeste 14 Este 0 805 -1.1 92
2019-06-10 05:00:00 3.1 13 Este 20 Este 0 804.8 -1.8 92
2019-06-10 04:00:00 3.4 10 Este 18 Este 0 805.4 -1.4 94
2019-06-10 03:00:00 4 8 Nordeste 13 Nordeste 0 806.1 -0.7 90
2019-06-10 02:00:00 4.5 6 Norte 20 Norte 0 806.6 0.1 94
2019-06-10 01:00:00 5.1 10 Norte 19 Norte 0 806.8 0.7 92
2019-06-10 00:00:00 5.9 10 Norte 18 Noroeste 0 806.8 1.1 82
2019-06-09 23:00:00 6.6 10 Noroeste 17 Noroeste 0 806.5 0.9 74
2019-06-09 22:00:00 7 10 Oeste 26 Oeste 0 806.1 0.7 67
2019-06-09 21:00:00 8.5 15 Oeste 26 Oeste 0 805.7 0.4 60
2019-06-09 20:00:00 9.1 12 Oeste 24 Oeste 0 805.6 0.4 57
2019-06-09 19:00:00 10.3 17 Oeste 33 Oeste 0 805.4 -0.1 53
2019-06-09 18:00:00 11.1 19 Oeste 39 Oeste 0 805.3 -0.3 55
2019-06-09 17:00:00 11.9 17 Oeste 38 Oeste 0 805.2 -0.6 51
2019-06-09 16:00:00 12.6 16 Oeste 40 Oeste 0 805.5 -0.1 52
2019-06-09 15:00:00 11.8 16 Oeste 38 Oeste 0 805.6 0.2 50
2019-06-09 14:00:00 11.1 13 Oeste 27 Oeste 0 805.8 0.6 51
2019-06-09 13:00:00 10.6 14 Oeste 23 Oeste 0 805.6 0.6 64
2019-06-09 12:00:00 10.2 10 Oeste 24 Sudoeste 0 805.4 0.5 61
2019-06-09 11:00:00 10.1 9 Oeste 25 Oeste 0 805.2 0.7 52
2019-06-09 10:00:00 10.3 13 Oeste 32 Sudoeste 0 805 0.6 17
2019-06-09 09:00:00 9.4 19 Sudoeste 35 Sudoeste 0 804.9 0.5 10
2019-06-09 08:00:00 8.5 26 Sudoeste 42 Sudoeste 0 804.5 -0.1 10
2019-06-09 07:00:00 8.3 31 Sudoeste 51 Sudoeste 0 804.4 -1.1 8
2019-06-09 06:00:00 7.9 31 Sudoeste 64 Sudoeste 0 804.4 -1.6 18
2019-06-09 05:00:00 8.5 34 Sudoeste 54 Sudoeste 0 804.6 -1.8 14
2019-06-09 04:00:00 8.2 27 Sudoeste 36 Sudoeste 0 805.5 -1.1 40
2019-06-09 03:00:00 7.8 11 Sur 24 Sudoeste 0 806 -0.8 41
2019-06-09 02:00:00 8.4 13 Sur 24 Sudoeste 0 806.4 -0.3 34
2019-06-09 01:00:00 8.8 14 Sur 25 Sur 0 806.6 0.1 35
2019-06-09 00:00:00 7.2 14 Sudoeste 18 Sudoeste 0 806.8 0.4 47
2019-06-08 23:00:00 8.3 15 Sudoeste 23 Sudoeste 0 806.7 0.4 41
2019-06-08 22:00:00 9.4 15 Sudoeste 21 Sudoeste 0 806.5 0.2 38
2019-06-08 21:00:00 10.2 13 Sudoeste 25 Oeste 0 806.4 0.1 38
2019-06-08 20:00:00 11.5 17 Sudoeste 30 Oeste 0 806.3 -0.2 32
2019-06-08 19:00:00 12.2 14 Sur 30 Sur 0 806.3 -0.5 33
2019-06-08 18:00:00 13.7 14 Sudoeste 29 Sudoeste 0 806.3 -0.5 28
2019-06-08 17:00:00 13.1 6 Oeste 23 Oeste 0 806.5 -0.5 36
2019-06-08 16:00:00 13.6 10 Oeste 26 Oeste 0 806.8 -0.1 39
2019-06-08 15:00:00 13.2 15 Oeste 27 Oeste 0 806.8 0.1 46
2019-06-08 14:00:00 13.5 10 Nordeste 30 Este 0 807 0.4 31
2019-06-08 13:00:00 12.5 13 Este 43 Este 0 806.9 0.2 32
2019-06-08 12:00:00 11.1 14 Sudeste 30 Sudeste 0 806.7 0.4 33
2019-06-08 11:00:00 10.3 19 Sudeste 29 Sudeste 0 806.6 0.1 36
2019-06-08 10:00:00 9.3 18 Sudeste 33 Sudeste 0 806.7 0.6 39
2019-06-08 09:00:00 8.2 20 Sur 37 Sur 0 806.3 0.1 35
2019-06-08 08:00:00 7 16 Sudoeste 35 Sur 0 806.5 0.3 36
2019-06-08 07:00:00 5.6 19 Sur 43 Sur 0 806.1 -0.3 39
2019-06-08 06:00:00 5.6 23 Sur 39 Sur 0 806.2 -0.5 39
2019-06-08 05:00:00 5.5 26 Sur 37 Sur 0 806.2 -0.8 39
2019-06-08 04:00:00 5.2 18 Sur 29 Sur 0 806.4 -0.9 32
2019-06-08 03:00:00 3.8 23 Sudeste 31 Sudeste 0 806.7 -0.7 51
2019-06-08 02:00:00 2 23 Este 30 Este 0 807 -0.1 76
2019-06-08 01:00:00 2.3 23 Este 29 Este 0 807.3 0.5 73
2019-06-08 00:00:00 2.3 19 Este 24 Este 0 807.4 0.9 73
2019-06-07 23:00:00 2.7 14 Este 18 Este 0 807.1 0.8 73
2019-06-07 22:00:00 3.8 5 Este 10 Norte 0 806.8 1 71
2019-06-07 21:00:00 6.2 7 Norte 28 Noroeste 0 806.5 1 63
2019-06-07 20:00:00 8 13 Oeste 26 Oeste 0 806.3 1 58
2019-06-07 19:00:00 8.2 12 Noroeste 24 Noroeste 0 805.8 0.8 58
2019-06-07 18:00:00 8.9 7 Oeste 28 Oeste 0 805.5 0.9 60
2019-06-07 17:00:00 7 14 Noroeste 25 Oeste 0 805.3 1.1 64
2019-06-07 16:00:00 6.5 13 Noroeste 27 Oeste 0 805 1.3 73
2019-06-07 15:00:00 5.6 10 Noroeste 21 Noroeste 0 804.6 1.7 76
2019-06-07 14:00:00 4.8 8 Oeste 23 Oeste 0 804.2 2 91
2019-06-07 13:00:00 3.3 11 Oeste 22 Oeste 0 803.7 2.1 93
2019-06-07 12:00:00 2.1 11 Oeste 22 Oeste 0 802.9 2.1 94
2019-06-07 11:00:00 1.6 14 Oeste 22 Oeste 0 802.2 2.1 98
2019-06-07 10:00:00 0.4 17 Sudoeste 28 Sudoeste 0 801.6 2.1 92
2019-06-07 09:00:00 -1 21 Oeste 31 Oeste 0 800.8 2.1 100
2019-06-07 08:00:00 -1.3 22 Sudoeste 38 Oeste 0 800.1 1.8 100
2019-06-07 07:00:00 -1.4 19 Sudoeste 38 Oeste 0 799.5 1.4 100
2019-06-07 06:00:00 -1.7 21 Sudoeste 37 Sudoeste 0 798.7 1.3 --
2019-06-07 05:00:00 -1.5 27 Sudoeste 40 Sudoeste 0 798.3 1.4 100
2019-06-07 04:00:00 -0.9 26 Sudoeste 55 Sudoeste 0 798.1 1.2 99
2019-06-07 03:00:00 0.1 36 Sudoeste 72 Oeste 0 797.4 1 100
2019-06-07 02:00:00 2.2 46 Sudoeste 74 Sudoeste 0 796.9 1.1 100
2019-06-07 01:00:00 3.3 48 Sudoeste 76 Sudoeste 3.2 796.9 1 100
2019-06-07 00:00:00 5.1 53 Sudoeste 85 Sudoeste 2.8 796.4 0.4 99
2019-06-06 23:00:00 5.5 57 Sudoeste 91 Sudoeste 1.2 795.8 -0.5 98
2019-06-06 22:00:00 5.3 50 Sudoeste 86 Sudoeste 0.8 795.9 -0.5 97
2019-06-06 21:00:00 5.3 56 Sudoeste 84 Sudoeste 0.4 796 -0.7 92
2019-06-06 20:00:00 6.3 47 Sudoeste 84 Sudoeste 0 796.3 -1.3 78
2019-06-06 19:00:00 8 41 Sudoeste 67 Sudoeste 0 796.4 -1.6 65
2019-06-06 18:00:00 8.3 42 Sur 71 Sudoeste 0 796.7 -1.7 61
2019-06-06 17:00:00 8.7 28 Sur 59 Sudoeste 0 797.6 -1 59
2019-06-06 16:00:00 8.9 31 Sudoeste 53 Sudoeste 0 798 -1.1 55
2019-06-06 15:00:00 8.9 26 Sudoeste 53 Sudoeste 0 798.4 -0.6 52
2019-06-06 14:00:00 8.9 33 Oeste 51 Oeste 0 798.6 -0.5 38
2019-06-06 13:00:00 7 9 Oeste 29 Sudoeste 0 799.1 0 55
2019-06-06 12:00:00 7.6 13 Oeste 22 Oeste 0 799 -0.1 55
2019-06-06 11:00:00 6.5 8 Noroeste 22 Sudoeste 0 799.1 -0.1 57
2019-06-06 10:00:00 6.8 10 Sudoeste 20 Sudoeste 0 799.1 -0.4 33
2019-06-06 09:00:00 4.8 10 Oeste 27 Sudoeste 0 799.1 -0.6 49
2019-06-06 08:00:00 4.3 21 Sudoeste 33 Sudoeste 0 799.2 -0.9 18
2019-06-06 07:00:00 1.6 14 Sudoeste 24 Sudoeste 0 799.5 -1 25
2019-06-06 06:00:00 2 20 Sudoeste 30 Sudoeste 0 799.7 -1.2 25
2019-06-06 05:00:00 1.1 14 Sudoeste 21 Sudoeste 0 800.1 -1.3 32
2019-06-06 04:00:00 0.4 12 Oeste 20 Sudoeste 0 800.5 -1.2 68
2019-06-06 03:00:00 1.8 14 Sudoeste 24 Sudoeste 0 800.9 -1.2 80
2019-06-06 02:00:00 0.6 11 Este 19 Sudeste 0 801.4 -0.4 90
2019-06-06 01:00:00 0.7 10 Este 12 Este 0 801.7 0.2 89
2019-06-06 00:00:00 1.6 10 Oeste 17 Oeste 0 802.1 0.5 87
2019-06-05 23:00:00 1.7 13 Sudoeste 17 Sudoeste 0 801.8 0.4 86
2019-06-05 22:00:00 3.3 10 Oeste 20 Oeste 0 801.5 0.1 81
2019-06-05 21:00:00 4.7 14 Oeste 22 Oeste 0 801.6 0.1 70
2019-06-05 20:00:00 5.4 17 Oeste 30 Oeste 0 801.4 0 63
2019-06-05 19:00:00 6.7 21 Oeste 37 Oeste 0 801.4 -0.3 57
2019-06-05 18:00:00 6.3 20 Oeste 36 Oeste 0 801.5 -0.2 53
2019-06-05 17:00:00 7.5 22 Oeste 40 Oeste 0 801.4 -0.2 60
2019-06-05 16:00:00 6.2 21 Oeste 38 Oeste 0 801.7 0.1 59
2019-06-05 15:00:00 5.9 22 Oeste 34 Oeste 0 801.7 0.7 64
2019-06-05 14:00:00 5.2 18 Oeste 30 Oeste 0 801.6 1.1 70
2019-06-05 13:00:00 2.5 14 Oeste 26 Oeste 0 801.6 1.6 84
2019-06-05 12:00:00 1.2 14 Oeste 30 Oeste 0 801 1.7 99
2019-06-05 11:00:00 0.3 20 Oeste 36 Oeste 0 800.5 1.6 --
2019-06-05 10:00:00 -0.2 19 Oeste 41 Oeste 0 800 1.6 --
2019-06-05 09:00:00 -0.2 18 Oeste 39 Oeste 0 799.3 1.1 --
2019-06-05 08:00:00 -0.3 15 Oeste 37 Oeste 0 798.9 0.6 --
2019-06-05 07:00:00 -0.2 15 Oeste 35 Oeste 0 798.4 -0.1 --
2019-06-05 06:00:00 0.3 16 Oeste 28 Noroeste 0 798.2 -0.6 100
2019-06-05 05:00:00 0.8 15 Oeste 27 Oeste 0.2 798.3 -0.8 100
2019-06-05 04:00:00 1.7 12 Noroeste 21 Noroeste 0 798.5 -0.7 100
2019-06-05 03:00:00 1.3 13 Oeste 25 Noroeste 0 798.8 -0.8 99
2019-06-05 02:00:00 2.5 8 Noroeste 18 Oeste 0 799.1 -0.6 98
2019-06-05 01:00:00 3.1 14 Oeste 23 Oeste 0 799.2 -0.5 93
2019-06-05 00:00:00 4.8 12 Oeste 24 Sudoeste 0 799.6 -0.3 98
2019-06-04 23:00:00 6.2 17 Sudoeste 28 Sudoeste 0 799.7 -0.6 97
2019-06-04 22:00:00 7.3 18 Sudoeste 33 Sudoeste 0 799.7 -0.7 87
2019-06-04 21:00:00 7.5 19 Sudoeste 36 Sudoeste 0 799.9 -0.9 94
2019-06-04 20:00:00 8 11 Oeste 41 Sudoeste 0 800.3 -0.9 94
2019-06-04 19:00:00 10.2 26 Sudoeste 42 Sudoeste 0 800.4 -0.9 77
2019-06-04 18:00:00 11.3 24 Oeste 48 Oeste 0 800.8 -0.6 69
2019-06-04 17:00:00 10.6 22 Oeste 42 Oeste 0 801.2 -0.4 69
2019-06-04 16:00:00 11.1 24 Oeste 43 Oeste 0 801.3 -0.4 70
2019-06-04 15:00:00 12.3 29 Oeste 45 Oeste 0 801.4 -0.3 69
2019-06-04 14:00:00 13 21 Oeste 38 Sudoeste 0 801.6 -0.2 71
2019-06-04 13:00:00 13.9 21 Sudoeste 41 Sudoeste 0 801.7 -0.1 38
2019-06-04 12:00:00 13.4 26 Sudoeste 44 Sudoeste 0 801.7 0.1 36
2019-06-04 11:00:00 13.2 25 Sudoeste 45 Sudoeste 0 801.8 0.3 59
2019-06-04 10:00:00 12.1 27 Sudoeste 46 Sudoeste 0 801.8 0.3 57
2019-06-04 09:00:00 12.5 29 Sudoeste 51 Oeste 0 801.6 0.3 49
2019-06-04 08:00:00 11.7 37 Sudoeste 54 Sudoeste 0 801.5 -0.4 57
2019-06-04 07:00:00 12.2 33 Sudoeste 64 Sudoeste 0 801.5 -0.9 19
2019-06-04 06:00:00 12.9 39 Sudoeste 71 Sudoeste 0 801.3 -2.1 31
2019-06-04 05:00:00 12.9 37 Sudoeste 70 Sudoeste 0 801.9 -2.3 41
2019-06-04 04:00:00 12.9 37 Sudoeste 76 Sudoeste 0 802.4 -2.5 35
2019-06-04 03:00:00 12.7 36 Sudoeste 62 Sudoeste 0 803.4 -2 27
2019-06-04 02:00:00 12 35 Sudoeste 53 Oeste 0 804.2 -1.3 52
2019-06-04 01:00:00 12.3 29 Sudoeste 50 Sudoeste 0 804.9 -0.4 47
2019-06-04 00:00:00 13.7 32 Sudoeste 59 Oeste 0 805.4 -0.3 20
2019-06-03 23:00:00 13.5 36 Sudoeste 59 Sudoeste 0 805.5 -0.3 44
2019-06-03 22:00:00 14.1 36 Sudoeste 62 Sudoeste 0 805.3 -0.8 41
2019-06-03 21:00:00 15.3 31 Sudoeste 57 Sudoeste 0 805.7 -0.6 36
2019-06-03 20:00:00 16.5 37 Sudoeste 53 Oeste 0 805.8 -0.7 26
2019-06-03 19:00:00 18 30 Sudoeste 49 Sudoeste 0 806.1 -0.7 24
2019-06-03 18:00:00 18.3 33 Sudoeste 54 Oeste 0 806.3 -0.9 23
2019-06-03 17:00:00 18.9 30 Sudoeste 52 Sudoeste 0 806.5 -0.8 22
2019-06-03 16:00:00 18.4 28 Sudoeste 57 Sudoeste 0 806.8 -0.8 24
2019-06-03 15:00:00 18.4 32 Sudoeste 59 Oeste 0 807.2 -0.1 21
2019-06-03 14:00:00 18.3 32 Sudoeste 53 Sudoeste 0 807.3 -0.1 15
2019-06-03 13:00:00 17.9 30 Sudoeste 48 Sudoeste 0 807.6 0.2 15
2019-06-03 12:00:00 17.6 32 Sudoeste 50 Oeste 0 807.3 0 12
2019-06-03 11:00:00 15.3 33 Sudoeste 50 Sudoeste 0 807.4 0.1 13
2019-06-03 10:00:00 16.3 31 Sudoeste 50 Sudoeste 0 807.4 0.3 12
2019-06-03 09:00:00 15.5 32 Sudoeste 49 Sudoeste 0 807.3 0.1 13
2019-06-03 08:00:00 14.8 30 Sudoeste 50 Sudoeste 0 807.3 -0.2 13
2019-06-03 07:00:00 14.8 35 Sudoeste 51 Sudoeste 0 807.1 -0.7 13
2019-06-03 06:00:00 14.7 29 Sudoeste 49 Sudoeste 0 807.2 -1.1 10
2019-06-03 05:00:00 15 28 Sudoeste 43 Sudoeste 0 807.5 -1.2 10
2019-06-03 04:00:00 14.7 23 Sudoeste 34 Sudoeste 0 807.8 -1.4 15
2019-06-03 03:00:00 14.8 23 Sudoeste 32 Sudoeste 0 808.3 -1.2 22
2019-06-03 02:00:00 14.7 19 Sudoeste 30 Sudoeste 0 808.7 -0.8 26
2019-06-03 01:00:00 14.6 14 Sudoeste 25 Sudoeste 0 809.2 0 28
2019-06-03 00:00:00 14.4 15 Sudoeste 20 Sudoeste 0 809.5 0.4 37
2019-06-02 23:00:00 13.5 15 Sudoeste 19 Sudoeste 0 809.5 0.4 41
2019-06-02 22:00:00 14.3 13 Sudoeste 24 Sudoeste 0 809.2 0 40
2019-06-02 21:00:00 16.9 13 Sudoeste 24 Oeste 0 809.1 -0.1 31
2019-06-02 20:00:00 18.5 13 Oeste 27 Oeste 0 809.1 -0.2 31
2019-06-02 19:00:00 18.7 15 Oeste 40 Oeste 0 809.2 -0.4 31
2019-06-02 18:00:00 19.8 21 Oeste 49 Sudoeste 0 809.2 -0.4 30
2019-06-02 17:00:00 20.5 21 Oeste 46 Oeste 0 809.3 -0.7 26
2019-06-02 16:00:00 20.3 25 Oeste 44 Oeste 0 809.6 -0.8 25
2019-06-02 15:00:00 20.9 23 Oeste 45 Noroeste 0 809.6 -0.7 31
2019-06-02 14:00:00 20.3 20 Oeste 36 Oeste 0 810 -0.1 29
2019-06-02 13:00:00 19.3 13 Oeste 24 Oeste 0 810.4 0.4 31
2019-06-02 12:00:00 18.6 9 Noroeste 18 Noroeste 0 810.3 0.6 33
2019-06-02 11:00:00 18.6 6 Noroeste 14 Oeste 0 810.1 0.6 32
2019-06-02 10:00:00 17.7 9 Noroeste 14 Noroeste 0 810 0.5 32
2019-06-02 09:00:00 17 6 Nordeste 10 Este 0 809.7 0.3 34
2019-06-02 08:00:00 14.2 10 Sudoeste 18 Sur 0 809.5 0 42
2019-06-02 07:00:00 12.3 13 Sur 17 Sur 0 809.5 -0.3 51
2019-06-02 06:00:00 12.1 7 Sudeste 15 Sudeste 0 809.4 -0.9 47
2019-06-02 05:00:00 12.2 13 Este 16 Este 0 809.5 -1.3 52
2019-06-02 04:00:00 12.1 12 Sudeste 15 Sudeste 0 809.8 -1.2 56
2019-06-02 03:00:00 12.8 10 Este 13 Sudeste 0 810.3 -0.7 52
2019-06-02 02:00:00 13.3 5 Sudeste 13 Sur 0 810.8 -0.1 50
2019-06-02 01:00:00 13 9 Sudoeste 23 Sudoeste 0 811 0.5 52
2019-06-02 00:00:00 15 17 Sudoeste 21 Sudoeste 0 811 0.6 34
2019-06-01 23:00:00 14.2 15 Sudoeste 21 Sudoeste 0 810.9 0.6 38
2019-06-01 22:00:00 14.8 15 Sudoeste 20 Sudoeste 0 810.5 0.1 37
2019-06-01 21:00:00 18.4 14 Sudoeste 30 Oeste 0 810.4 -0.2 30
2019-06-01 20:00:00 20.2 14 Oeste 25 Oeste 0 810.3 -0.5 26
2019-06-01 19:00:00 21 9 Oeste 23 Oeste 0 810.4 -0.7 26
2019-06-01 18:00:00 20.2 13 Oeste 26 Oeste 0 810.6 -0.8 28
2019-06-01 17:00:00 20.8 13 Oeste 34 Oeste 0 810.8 -0.9 26
2019-06-01 16:00:00 21.1 16 Noroeste 35 Oeste 0 811.1 -0.8 23
2019-06-01 15:00:00 19.8 17 Oeste 29 Oeste 0 811.4 -0.4 26
2019-06-01 14:00:00 19.9 13 Oeste 25 Noroeste 0 811.7 0.1 33
2019-06-01 13:00:00 18.8 12 Noroeste 20 Oeste 0 811.9 0.5 36
2019-06-01 12:00:00 18.4 12 Noroeste 20 Noroeste 0 811.8 0.6 34
2019-06-01 11:00:00 18.3 9 Noroeste 16 Oeste 0 811.6 0.4 35
2019-06-01 10:00:00 17.6 8 Oeste 14 Oeste 0 811.4 0.3 35
2019-06-01 09:00:00 17 9 Oeste 12 Oeste 0 811.2 0.3 36
2019-06-01 08:00:00 14.7 5 Sudoeste 16 Sur 0 811.2 0.1 42
2019-06-01 07:00:00 11.2 11 Sudoeste 14 Sur 0 811.1 -0.1 46
2019-06-01 06:00:00 10.7 10 Sur 13 Sur 0 810.9 -0.5 41
2019-06-01 05:00:00 10.9 11 Sur 14 Sur 0 811.1 -0.6 36
2019-06-01 04:00:00 11.2 11 Sur 13 Sur 0 811.2 -0.8 35
2019-06-01 03:00:00 12.1 10 Sur 14 Sudeste 0 811.4 -0.8 33
2019-06-01 02:00:00 13.2 11 Sudeste 16 Sudeste 0 811.7 -0.4 28
2019-06-01 01:00:00 13.5 14 Sudeste 17 Sudeste 0 812 0.2 28
2019-06-01 00:00:00 13.5 11 Sudeste 14 Sudeste 0 812.2 0.6 29
2019-05-31 23:00:00 13 8 Sur 11 Sur 0 812.1 0.5 42
2019-05-31 22:00:00 13.9 6 Sudoeste 13 Oeste 0 811.8 0 42
2019-05-31 21:00:00 19 8 Oeste 20 Oeste 0 811.6 -0.4 28
2019-05-31 20:00:00 19.7 11 Noroeste 26 Noroeste 0 811.6 -0.7 23
2019-05-31 19:00:00 20.1 9 Norte 30 Norte 0 811.8 -0.6 25
2019-05-31 18:00:00 20.5 7 Norte 28 Norte 0 812 -0.7 26
2019-05-31 17:00:00 20.5 9 Norte 23 Norte 0 812.3 -0.5 28
2019-05-31 16:00:00 19.9 14 Noroeste 25 Oeste 0 812.4 -0.4 27
2019-05-31 15:00:00 19.5 15 Norte 45 Noroeste 0 812.7 0 26
2019-05-31 14:00:00 18.4 12 Noroeste 29 Oeste 0 812.8 0.2 30
2019-05-31 13:00:00 18.4 13 Oeste 23 Oeste 0 812.8 0.3 29
2019-05-31 12:00:00 17.4 11 Oeste 18 Sudoeste 0 812.7 0.3 29
2019-05-31 11:00:00 17.6 7 Noroeste 15 Norte 0 812.6 0.2 29
2019-05-31 10:00:00 17.1 5 Noroeste 10 Oeste 0 812.5 0.2 24
2019-05-31 09:00:00 16.1 5 Oeste 9 Sudoeste 0 812.4 0.3 27
2019-05-31 08:00:00 13.2 5 Sur 12 Sur 0 812.4 0.2 42
2019-05-31 07:00:00 9.7 9 Sur 14 Sur 0 812.3 -0.1 44
2019-05-31 06:00:00 10.1 14 Sur 19 Sur 0 812.1 -0.7 44
2019-05-31 05:00:00 10.9 15 Sur 24 Sur 0 812.2 -0.8 40
2019-05-31 04:00:00 11.4 16 Sur 22 Sur 0 812.4 -0.7 39
2019-05-31 03:00:00 13.2 17 Sur 22 Sudeste 0 812.8 -0.4 33
2019-05-31 02:00:00 11.8 19 Sudeste 28 Este 0 813 -0.2 35
2019-05-31 01:00:00 13.2 25 Este 34 Este 0 813.1 0.4 35
2019-05-31 00:00:00 13.2 22 Este 30 Este 0 813.2 0.7 30
2019-05-30 23:00:00 13.8 22 Este 32 Este 0 813.2 0.8 27
2019-05-30 22:00:00 13.8 19 Este 29 Este 0 812.7 0.1 27
2019-05-30 21:00:00 15.2 14 Nordeste 28 Nordeste 0 812.5 -0.3 28
2019-05-30 20:00:00 17.1 21 Nordeste 33 Nordeste 0 812.4 -0.6 25
2019-05-30 19:00:00 18.1 22 Nordeste 35 Nordeste 0 812.6 -0.4 24
2019-05-30 18:00:00 18.8 23 Nordeste 36 Nordeste 0 812.8 -0.4 25
2019-05-30 17:00:00 18.7 15 Nordeste 32 Nordeste 0 813 -0.2 23
2019-05-30 16:00:00 18.7 18 Nordeste 32 Nordeste 0 813 -0.1 26
2019-05-30 15:00:00 18.3 15 Nordeste 32 Nordeste 0 813.2 0.3 27
2019-05-30 14:00:00 16.9 18 Nordeste 32 Nordeste 0 813.2 0.6 33
2019-05-30 13:00:00 16 22 Nordeste 30 Nordeste 0 813.1 0.7 29
2019-05-30 12:00:00 15.5 22 Este 34 Este 0 812.9 0.6 31
2019-05-30 11:00:00 14.8 26 Este 36 Este 0 812.6 0.8 25
2019-05-30 10:00:00 14.3 25 Este 35 Este 0 812.4 0.8 25
2019-05-30 09:00:00 13.1 23 Este 35 Este 0 812.3 0.8 22
2019-05-30 08:00:00 11.9 26 Este 36 Este 0 811.8 0.1 25
2019-05-30 07:00:00 9.7 25 Este 36 Este 0 811.6 -0.4 32
2019-05-30 06:00:00 9.7 28 Este 38 Este 0 811.5 -0.7 36
2019-05-30 05:00:00 9.5 28 Este 39 Este 0 811.7 -0.6 47
2019-05-30 04:00:00 9.6 27 Este 45 Este 0 812 -0.4 60
2019-05-30 03:00:00 10 31 Este 48 Este 0 812.2 0 56
2019-05-30 02:00:00 10.3 37 Este 48 Este 0 812.3 0.3 51
2019-05-30 01:00:00 10.1 32 Este 48 Este 0 812.4 0.9 39
2019-05-30 00:00:00 9.6 35 Este 47 Este 0 812.2 0.9 34
2019-05-29 23:00:00 8.8 27 Este 42 Este 0 812 1 51
2019-05-29 22:00:00 9.6 29 Este 38 Nordeste 0 811.5 0.5 55
2019-05-29 21:00:00 11.4 29 Este 39 Este 0 811.3 0.4 49
2019-05-29 20:00:00 12.9 31 Nordeste 41 Nordeste 0 811 0 43
2019-05-29 19:00:00 13.8 27 Nordeste 41 Nordeste 0 811 0 41
2019-05-29 18:00:00 14.1 29 Este 42 Nordeste 0 810.9 0 41
2019-05-29 17:00:00 14.3 27 Nordeste 43 Este 0 811 0.2 38
2019-05-29 16:00:00 14.1 27 Nordeste 37 Nordeste 0 811 0.4 39
2019-05-29 15:00:00 13.3 27 Este 38 Nordeste 0 810.9 0.8 47
2019-05-29 14:00:00 12.4 27 Este 42 Nordeste 0 810.8 1 48
2019-05-29 13:00:00 11.4 31 Este 45 Este 0 810.6 1.2 49
2019-05-29 12:00:00 11.3 28 Este 46 Nordeste 0 810.1 1.1 49
2019-05-29 11:00:00 10.7 32 Este 42 Este 0 809.8 1.2 43
2019-05-29 10:00:00 11.2 30 Este 45 Este 0 809.4 1.1 41
2019-05-29 09:00:00 9.7 28 Este 42 Este 0 809 0.8 43
2019-05-29 08:00:00 8.4 28 Este 46 Este 0 808.6 0.2 47
2019-05-29 07:00:00 6 29 Este 41 Este 0 808.3 -0.3 57
2019-05-29 06:00:00 6.2 28 Este 38 Este 0 808.2 -0.4 59
2019-05-29 05:00:00 6.3 19 Sudeste 27 Este 0 808.4 -0.1 62
2019-05-29 04:00:00 7.4 10 Este 24 Este 0 808.6 0.3 59
2019-05-29 03:00:00 6.8 21 Este 28 Este 0 808.6 0.5 60
2019-05-29 02:00:00 8 24 Este 44 Este 0 808.5 0.7 53
2019-05-29 01:00:00 9.2 24 Este 43 Este 0 808.3 0.8 48
2019-05-29 00:00:00 8.4 26 Este 38 Este 0 808.1 0.9 50
2019-05-28 23:00:00 8.3 29 Este 37 Este 0 807.8 0.9 50
2019-05-28 22:00:00 8.4 28 Este 35 Este 0 807.5 0.5 52
2019-05-28 21:00:00 10.1 26 Este 36 Nordeste 0 807.2 0.2 46
2019-05-28 20:00:00 11.6 28 Nordeste 37 Nordeste 0 806.9 0.1 40
2019-05-28 19:00:00 12.7 26 Nordeste 38 Nordeste 0 807 0.3 38
2019-05-28 18:00:00 13.2 23 Nordeste 40 Nordeste 0 807 0.2 34
2019-05-28 17:00:00 13.3 22 Nordeste 33 Nordeste 0 806.8 0.3 34
2019-05-28 16:00:00 13 18 Nordeste 37 Nordeste 0 806.7 0.4 29
2019-05-28 15:00:00 12.8 20 Nordeste 33 Este 0 806.8 0.9 28
2019-05-28 14:00:00 12.1 21 Nordeste 32 Nordeste 0 806.5 0.8 36
2019-05-28 13:00:00 11.2 18 Este 29 Nordeste 0 806.3 0.9 47
2019-05-28 12:00:00 11.3 13 Este 24 Este 0 805.9 0.9 49
2019-05-28 11:00:00 11.3 11 Este 19 Nordeste 0 805.7 1 35
2019-05-28 10:00:00 10.8 11 Nordeste 17 Nordeste 0 805.4 1 36
2019-05-28 09:00:00 11.4 4 Nordeste 12 Este 0 805 0.9 56
2019-05-28 08:00:00 10.1 2 Sudoeste 8 Este 0 804.7 0.6 73
2019-05-28 07:00:00 6.8 3 Sudeste 10 Sudeste 0 804.4 0.1 81
2019-05-28 06:00:00 7.8 7 Sudeste 10 Sudeste 0 804.1 -0.2 74
2019-05-28 05:00:00 8.4 6 Sudeste 9 Sudeste 0 804.1 -0.6 69
2019-05-28 04:00:00 7.7 6 Sur 12 Sudeste 0 804.3 -0.7 69
2019-05-28 03:00:00 8.5 9 Sudeste 14 Este 0 804.3 -0.8 71
2019-05-28 02:00:00 9 8 Sudeste 15 Sur 0 804.7 -0.3 77
2019-05-28 01:00:00 8.8 6 Sudoeste 17 Norte 0 805 0.5 81
2019-05-28 00:00:00 9.6 4 Norte 18 Norte 0 805.1 0.5 77
2019-05-27 23:00:00 10.8 10 Norte 15 Norte 0 805 0.6 59
2019-05-27 22:00:00 11.9 8 Norte 15 Norte 0 804.5 0.1 54
2019-05-27 21:00:00 13.7 12 Norte 25 Norte 0 804.6 0.1 49
2019-05-27 20:00:00 15.2 14 Noroeste 35 Noroeste 0 804.4 -0.4 44
2019-05-27 19:00:00 16.5 18 Oeste 31 Oeste 0 804.4 -0.6 39
2019-05-27 18:00:00 16.6 11 Noroeste 28 Oeste 0 804.5 -0.6 38
2019-05-27 17:00:00 15.2 16 Norte 32 Norte 0 804.8 -0.6 45
2019-05-27 16:00:00 16 11 Noroeste 32 Norte 0 805 -0.5 46
2019-05-27 15:00:00 15.6 14 Norte 30 Norte 0 805.1 -0.6 46
2019-05-27 14:00:00 15.2 12 Noroeste 26 Norte 0 805.4 -0.1 46
2019-05-27 13:00:00 14.4 8 Noroeste 24 Oeste 0 805.5 -0.1 50
2019-05-27 12:00:00 14.3 14 Oeste 21 Noroeste 0 805.7 0.3 58
2019-05-27 11:00:00 14.4 10 Oeste 15 Oeste 0 805.5 0.3 55
2019-05-27 10:00:00 13 12 Oeste 17 Oeste 0 805.6 0.2 57
2019-05-27 09:00:00 13 15 Oeste 24 Sudoeste 0 805.4 0 53
2019-05-27 08:00:00 12.2 15 Sudoeste 22 Sudoeste 0 805.2 -0.5 54
2019-05-27 07:00:00 10.3 20 Sudoeste 24 Sudoeste 0 805.4 -0.8 53
2019-05-27 06:00:00 11.2 18 Sudoeste 24 Sudoeste 0 805.4 -1.3 49
2019-05-27 05:00:00 10.2 14 Sudoeste 21 Sudoeste 0 805.7 -1.6 61
2019-05-27 04:00:00 10.5 18 Sudoeste 22 Sudoeste 0 806.2 -1.5 67
2019-05-27 03:00:00 9 12 Sudoeste 20 Sudoeste 0 806.7 -1.3 70
2019-05-27 02:00:00 10.2 11 Sudoeste 26 Oeste 0 807.3 -0.7 63
2019-05-27 01:00:00 9.4 8 Sudoeste 15 Noroeste 0 807.7 0 62
2019-05-27 00:00:00 9.6 7 Noroeste 11 Noroeste 0 808 0.3 59
2019-05-26 23:00:00 10.3 8 Sudeste 21 Este 0 808 0.2 56
2019-05-26 22:00:00 10.4 17 Este 26 Este 0 807.7 0 57
2019-05-26 21:00:00 12.3 12 Nordeste 26 Norte 0 807.7 -0.3 51
2019-05-26 20:00:00 13.7 21 Nordeste 35 Nordeste 0 807.8 -0.3 45
2019-05-26 19:00:00 14.3 23 Nordeste 40 Nordeste 0 807.7 -0.4 47
2019-05-26 18:00:00 14.4 25 Nordeste 38 Nordeste 0 808 -0.1 47
2019-05-26 17:00:00 13.9 25 Nordeste 41 Nordeste 0 808.1 0 50
2019-05-26 16:00:00 13.5 27 Nordeste 37 Nordeste 0 808.1 -0.2 49
2019-05-26 15:00:00 12.9 26 Nordeste 42 Nordeste 0 808.1 0.1 56
2019-05-26 14:00:00 12.5 26 Nordeste 39 Nordeste 0 808.1 0.1 57
2019-05-26 13:00:00 11.3 26 Este 41 Nordeste 0 808.3 0.3 62
2019-05-26 12:00:00 10 30 Este 41 Este 0 808 0.3 68
2019-05-26 11:00:00 9.6 24 Este 43 Este 0 808 0.4 69
2019-05-26 10:00:00 8.1 26 Este 37 Este 0 808 0.8 73
2019-05-26 09:00:00 7.2 33 Este 43 Este 0 807.7 0.5 79
2019-05-26 08:00:00 5.8 28 Este 41 Este 0 807.6 0.1 82
2019-05-26 07:00:00 4.3 30 Este 38 Este 0 807.2 -0.6 87
2019-05-26 06:00:00 4.9 28 Este 38 Este 0 807.2 -1 82
2019-05-26 05:00:00 5.2 24 Este 33 Este 0 807.5 -1 77
2019-05-26 04:00:00 5.4 17 Este 25 Este 0 807.8 -0.9 71
2019-05-26 03:00:00 6.4 13 Este 28 Este 0 808.2 -0.5 71
2019-05-26 02:00:00 7.5 15 Este 31 Este 0 808.5 0.2 63
2019-05-26 01:00:00 7.9 14 Este 25 Este 0 808.7 0.5 58
2019-05-26 00:00:00 7.9 20 Este 36 Este 0 808.7 0.6 57
2019-05-25 23:00:00 8.3 28 Este 43 Este 0 808.3 0.6 51
2019-05-25 22:00:00 6.6 18 Este 32 Nordeste 0 808.2 0.6 63
2019-05-25 21:00:00 8.7 19 Nordeste 34 Nordeste 0 808.1 0.5 56
2019-05-25 20:00:00 10.3 24 Nordeste 43 Nordeste 0 807.7 0.3 50
2019-05-25 19:00:00 11.5 25 Nordeste 40 Nordeste 0 807.6 0.3 49
2019-05-25 18:00:00 11.5 27 Nordeste 38 Nordeste 0 807.6 0.4 50
2019-05-25 17:00:00 11 23 Nordeste 37 Nordeste 0 807.4 0.1 49
2019-05-25 16:00:00 11.1 26 Nordeste 41 Este 0 807.3 0.1 57
2019-05-25 15:00:00 9.5 27 Este 39 Este 0 807.2 0.4 61
2019-05-25 14:00:00 8.7 31 Este 44 Nordeste 0 807.3 0.5 67
2019-05-25 13:00:00 7.1 32 Este 48 Nordeste 0 807.2 0.8 72
2019-05-25 12:00:00 6.2 33 Este 45 Nordeste 0 806.8 0.8 73
2019-05-25 11:00:00 5.3 30 Este 45 Nordeste 0 806.8 1.3 77
2019-05-25 10:00:00 5.4 30 Este 46 Este 0 806.4 1.2 69
2019-05-25 09:00:00 5.1 31 Este 46 Este 0 806 0.7 69
2019-05-25 08:00:00 4.5 35 Este 45 Este 0 805.5 0.2 71
2019-05-25 07:00:00 3.9 34 Este 45 Este 0 805.2 -0.1 71
2019-05-25 06:00:00 3.7 29 Este 43 Este 0 805.3 -0.3 76
2019-05-25 05:00:00 3.9 29 Este 42 Este 0 805.3 -0.7 75
2019-05-25 04:00:00 3.2 29 Este 39 Sudeste 0 805.3 -0.6 80
2019-05-25 03:00:00 3.9 24 Este 39 Este 0 805.6 -0.2 68
2019-05-25 02:00:00 4.1 28 Este 41 Este 0 806 0.3 82
2019-05-25 01:00:00 4.9 30 Este 41 Este 0 805.9 0.7 76
2019-05-25 00:00:00 6.2 27 Sudeste 42 Sudeste 0 805.8 0.8 65
2019-05-24 23:00:00 5.9 27 Este 35 Este 0 805.7 1.1 67
2019-05-24 22:00:00 6.1 24 Este 34 Nordeste 0 805.2 0.5 66
2019-05-24 21:00:00 7.5 24 Nordeste 39 Nordeste 0 805 0.2 61
2019-05-24 20:00:00 9.4 27 Nordeste 41 Nordeste 0 804.6 -0.2 50
2019-05-24 19:00:00 10.9 28 Nordeste 43 Nordeste 0 804.7 -0.1 45
2019-05-24 18:00:00 11.3 28 Nordeste 44 Nordeste 0 804.8 0 45
2019-05-24 17:00:00 11.6 28 Nordeste 43 Este 0 804.8 0.2 50
2019-05-24 16:00:00 11.6 28 Nordeste 43 Nordeste 0 804.8 0.5 50
2019-05-24 15:00:00 10.1 29 Nordeste 45 Nordeste 0 804.8 0.7 59
2019-05-24 14:00:00 8.6 29 Nordeste 40 Nordeste 0 804.6 0.5 70
2019-05-24 13:00:00 7.3 30 Este 48 Nordeste 0 804.3 0.6 83
2019-05-24 12:00:00 5.1 33 Este 45 Este 0 804.1 0.5 99
2019-05-24 11:00:00 4.4 33 Este 42 Este 0 804.1 0.7 99
2019-05-24 10:00:00 4.6 29 Este 40 Este 0 803.7 0.5 99
2019-05-24 09:00:00 5 29 Este 39 Este 0 803.6 0.2 98
2019-05-24 08:00:00 4.8 17 Este 25 Este 0 803.4 -0.1 98
2019-05-24 07:00:00 4.7 12 Este 20 Este 0 803.2 -1 89
2019-05-24 06:00:00 4.7 14 Este 21 Este 0 803.4 -1.6 84
2019-05-24 05:00:00 4.5 14 Este 22 Sudeste 0 803.5 -2 91
2019-05-24 04:00:00 4.5 14 Este 19 Este 0 804.2 -1.5 90
2019-05-24 03:00:00 5.2 14 Este 20 Este 0 805 -1.4 90
2019-05-24 02:00:00 5.4 14 Este 20 Este 0 805.5 -0.9 90
2019-05-24 01:00:00 6.5 15 Este 19 Este 0 805.7 -0.5 92
2019-05-24 00:00:00 7.6 7 Norte 15 Norte 0 806.4 0.4 92
2019-05-23 23:00:00 8.4 8 Noroeste 26 Oeste 0 806.4 0.5 86
2019-05-23 22:00:00 9.3 4 Noroeste 18 Oeste 0 806.2 0.2 70
2019-05-23 21:00:00 11.7 13 Oeste 25 Oeste 0 806 -0.3 54
2019-05-23 20:00:00 12.5 17 Oeste 31 Oeste 0 805.9 -0.3 60
2019-05-23 19:00:00 14.8 18 Oeste 35 Oeste 0 806 -0.4 50
2019-05-23 18:00:00 15.3 18 Oeste 40 Oeste 0 806.3 -0.2 37
2019-05-23 17:00:00 15.1 20 Oeste 41 Oeste 0 806.2 -0.5 32
2019-05-23 16:00:00 15.4 24 Oeste 40 Oeste 0 806.4 -0.4 41
2019-05-23 15:00:00 14.6 23 Oeste 37 Oeste 0 806.5 -0.2 54
2019-05-23 14:00:00 14.2 24 Oeste 37 Noroeste 0 806.7 0.5 59
2019-05-23 13:00:00 15.1 19 Oeste 43 Oeste 0.2 806.8 0.5 44
2019-05-23 12:00:00 13.6 25 Oeste 54 Sudoeste 0 806.7 0.5 45
2019-05-23 11:00:00 12.6 38 Sudoeste 63 Sudoeste 0 806.2 -0.1 40
2019-05-23 10:00:00 10.8 23 Sudoeste 49 Sudoeste 0 806.3 0 32
2019-05-23 09:00:00 10.9 24 Sudoeste 44 Sudoeste 0 806.2 0 47
2019-05-23 08:00:00 9.7 20 Sudoeste 35 Sudoeste 0 806.3 -0.3 66
2019-05-23 07:00:00 9.3 20 Sudoeste 31 Sudoeste 0 806.3 -0.6 64
2019-05-23 06:00:00 9.8 23 Sudoeste 32 Sudoeste 0 806.2 -1.1 60
2019-05-23 05:00:00 8 16 Sur 22 Sudoeste 0 806.6 -0.8 65
2019-05-23 04:00:00 7.8 10 Sur 17 Sur 0 806.9 -0.8 65
2019-05-23 03:00:00 7.6 4 Sudeste 13 Sudoeste 0 807.3 -0.5 66
2019-05-23 02:00:00 7.7 10 Sudoeste 18 Sudoeste 0 807.4 -0.3 68
2019-05-23 01:00:00 9.4 14 Sudoeste 18 Sudoeste 0 807.7 0.3 59
2019-05-23 00:00:00 10 15 Sudoeste 21 Sudoeste 0 807.8 0.8 56
2019-05-22 23:00:00 10.2 17 Sudoeste 20 Sudoeste 0 807.7 0.8 54
2019-05-22 22:00:00 10.1 14 Sudoeste 26 Sudoeste 0 807.4 0.7 58
2019-05-22 21:00:00 12.5 17 Oeste 31 Oeste 0 807 0.3 48
2019-05-22 20:00:00 13.8 21 Oeste 37 Oeste 0 806.9 0 42
2019-05-22 19:00:00 14.5 17 Oeste 38 Oeste 0 806.7 -0.3 45
2019-05-22 18:00:00 14.5 20 Oeste 38 Oeste 0 806.7 -0.3 46
2019-05-22 17:00:00 14.3 21 Oeste 37 Oeste 0 806.9 -0.2 46
2019-05-22 16:00:00 12.8 18 Oeste 32 Noroeste 0 807 -0.1 55
2019-05-22 15:00:00 12.8 13 Oeste 31 Oeste 0 807 0 54
2019-05-22 14:00:00 13.3 13 Noroeste 26 Noroeste 0 807.1 0.5 52
2019-05-22 13:00:00 11.8 12 Oeste 24 Oeste 0 807.1 0.8 52
2019-05-22 12:00:00 11.3 8 Noroeste 17 Oeste 0 807 1.1 47
2019-05-22 11:00:00 12.3 8 Noroeste 15 Oeste 0 806.6 0.9 44
2019-05-22 10:00:00 11.9 8 Noroeste 13 Noroeste 0 806.3 0.9 42
2019-05-22 09:00:00 11.4 5 Oeste 9 Oeste 0 805.9 0.5 42
2019-05-22 08:00:00 9.5 5 Este 12 Sudeste 0 805.7 0.2 53
2019-05-22 07:00:00 5.8 11 Sudeste 15 Sudeste 0 805.4 -0.3 63
2019-05-22 06:00:00 6.1 10 Sudeste 13 Sudeste 0 805.4 -0.2 61
2019-05-22 05:00:00 6.1 9 Sudeste 16 Sudeste 0 805.5 -0.2 60
2019-05-22 04:00:00 6.2 11 Sudeste 13 Sudeste 0 805.7 0 57
2019-05-22 03:00:00 6 10 Sudeste 14 Sudeste 0 805.6 -0.2 59
2019-05-22 02:00:00 6.6 12 Sudeste 16 Este 0 805.7 0 58
2019-05-22 01:00:00 6.6 9 Este 12 Este 0 805.7 0.6 61
2019-05-22 00:00:00 6.5 5 Sur 9 Sudoeste 0 805.8 1.2 69
2019-05-21 23:00:00 6.6 6 Sudoeste 9 Sudoeste 0 805.7 1.4 71
2019-05-21 22:00:00 7.7 4 Sudoeste 18 Noroeste 0 805.1 1 63
2019-05-21 21:00:00 11.1 12 Oeste 23 Oeste 0 804.6 0.5 50
2019-05-21 20:00:00 12.3 13 Noroeste 27 Oeste 0 804.3 0.3 44
2019-05-21 19:00:00 12.7 13 Oeste 29 Oeste 0 804.1 0.2 40
2019-05-21 18:00:00 12.9 10 Noroeste 28 Noroeste 0 804.1 0.3 48
2019-05-21 17:00:00 12.6 12 Oeste 24 Oeste 0 804 0.3 48
2019-05-21 16:00:00 10.9 10 Noroeste 26 Oeste 0 803.9 0.5 55
2019-05-21 15:00:00 11 6 Norte 23 Nordeste 0 803.8 0.7 54
2019-05-21 14:00:00 9.5 11 Oeste 18 Noroeste 0 803.7 0.9 63
2019-05-21 13:00:00 8.8 4 Norte 18 Noroeste 0 803.4 1 63
2019-05-21 12:00:00 8.3 8 Noroeste 15 Oeste 0 803.1 1 67
2019-05-21 11:00:00 8 7 Noroeste 18 Nordeste 0 802.8 1 61
2019-05-21 10:00:00 8.6 6 Norte 13 Nordeste 0 802.4 0.8 68
2019-05-21 09:00:00 7.4 6 Nordeste 9 Nordeste 0 802.1 0.7 64
2019-05-21 08:00:00 4.2 3 Este 9 Sur 0 801.8 0.3 75
2019-05-21 07:00:00 1.6 4 Sudeste 11 Este 0 801.6 0 81
2019-05-21 06:00:00 1.8 4 Sudeste 17 Este 0 801.4 -0.3 81
2019-05-21 05:00:00 2.6 12 Este 21 Este 0 801.5 -0.7 78
2019-05-21 04:00:00 2.6 14 Sudeste 16 Sudeste 0 801.6 -0.6 77
2019-05-21 03:00:00 2.4 14 Este 16 Este 0 801.7 -0.6 79
2019-05-21 02:00:00 2.9 9 Este 15 Este 0 802.2 0.1 76
2019-05-21 01:00:00 3.1 12 Este 16 Este 0 802.2 0.3 76
2019-05-21 00:00:00 3.2 4 Sur 11 Oeste 0 802.3 0.8 77
2019-05-20 23:00:00 4.8 0 Calma 14 Oeste 0 802.1 0.9 72
2019-05-20 22:00:00 5.4 8 Oeste 16 Oeste 0 801.9 0.5 65
2019-05-20 21:00:00 6.7 13 Oeste 24 Sudoeste 0 801.5 0.3 66
2019-05-20 20:00:00 7 18 Sudoeste 29 Oeste 0 801.2 0.1 62
2019-05-20 19:00:00 8 18 Oeste 28 Oeste 0 801.4 0.3 57
2019-05-20 18:00:00 8.2 15 Oeste 35 Oeste 0 801.2 0.1 49
2019-05-20 17:00:00 8.1 19 Oeste 34 Oeste 0 801.1 0 50
2019-05-20 16:00:00 9.3 20 Oeste 34 Oeste 0 801.1 0.3 50
2019-05-20 15:00:00 8.3 19 Oeste 33 Oeste 0 801.1 0.3 55
2019-05-20 14:00:00 7.4 18 Oeste 27 Oeste 0 801.1 0.5 57
2019-05-20 13:00:00 9 8 Oeste 27 Oeste 0 800.8 0.7 36
2019-05-20 12:00:00 6.8 16 Oeste 25 Oeste 0 800.8 1.1 61
2019-05-20 11:00:00 6 13 Oeste 27 Sudoeste 0 800.6 1.2 58
2019-05-20 10:00:00 5.7 18 Oeste 28 Oeste 0 800.1 0.8 55
2019-05-20 09:00:00 4.9 19 Oeste 28 Sudoeste 0 799.7 0.5 51
2019-05-20 08:00:00 3.3 13 Sudoeste 24 Sudoeste 0 799.4 -0.1 51
2019-05-20 07:00:00 1.8 12 Sudoeste 19 Sudoeste 0 799.3 -0.5 50
2019-05-20 06:00:00 1 14 Sudoeste 21 Sudoeste 0 799.2 -0.9 48
2019-05-20 05:00:00 2 15 Sudoeste 22 Sudoeste 0 799.5 -0.9 50
2019-05-20 04:00:00 0.1 5 Sudoeste 13 Sudoeste 0 799.8 -0.9 57
2019-05-20 03:00:00 1.7 5 Noroeste 12 Sudeste 0 800.1 -0.8 53
2019-05-20 02:00:00 0.8 12 Sudeste 16 Sudeste 0 800.4 -0.6 56
2019-05-20 01:00:00 1.2 7 Sudeste 10 Sudeste 0 800.7 0.2 57
2019-05-20 00:00:00 1.5 5 Este 10 Sudeste 0 800.9 0.7 54
2019-05-19 23:00:00 1.7 6 Sudoeste 14 Oeste 0 801 1.1 56
2019-05-19 22:00:00 2.6 9 Sudoeste 18 Oeste 0 800.5 0.6 53
2019-05-19 21:00:00 5.1 14 Oeste 28 Oeste 0 800.2 0.4 42
2019-05-19 20:00:00 7.1 20 Oeste 31 Oeste 0 799.9 -0.2 34
2019-05-19 19:00:00 8.2 18 Noroeste 34 Noroeste 0 799.9 -0.2 31
2019-05-19 18:00:00 8.4 17 Oeste 35 Noroeste 0 799.8 -0.2 34
2019-05-19 17:00:00 7.6 18 Noroeste 32 Oeste 0 800.1 0.2 41
2019-05-19 16:00:00 7.2 16 Oeste 33 Oeste 0 800.1 0.5 37
2019-05-19 15:00:00 6.6 17 Noroeste 27 Oeste 0 800 0.5 34
2019-05-19 14:00:00 5.8 14 Oeste 27 Noroeste 0 799.9 0.8 50
2019-05-19 13:00:00 5.3 16 Oeste 24 Noroeste 0 799.6 0.7 58
2019-05-19 12:00:00 3.8 13 Noroeste 19 Noroeste 0 799.5 1 70
2019-05-19 11:00:00 4.9 8 Nordeste 19 Nordeste 0 799.1 0.7 75
2019-05-19 10:00:00 3.1 9 Norte 16 Este 0 798.9 0.6 66
2019-05-19 09:00:00 2 10 Nordeste 14 Nordeste 0 798.5 0.1 79
2019-05-19 08:00:00 0.8 8 Este 18 Sudeste 0 798.4 -0.1 79
2019-05-19 07:00:00 -1.6 12 Sudeste 18 Este 0 798.3 -0.5 100
2019-05-19 06:00:00 -1.5 12 Este 20 Este 0 798.4 -0.7 100
2019-05-19 05:00:00 -0.9 11 Este 15 Nordeste 0 798.5 -1 100
2019-05-19 04:00:00 -0.7 8 Este 13 Norte 0 798.8 -1.1 99
2019-05-19 03:00:00 -0.5 8 Nordeste 14 Nordeste 0 799.1 -1 96
2019-05-19 02:00:00 -0.3 9 Norte 18 Nordeste 0 799.5 -0.5 95
2019-05-19 01:00:00 -0.3 5 Noroeste 13 Norte 0 799.9 0 87
2019-05-19 00:00:00 0.5 5 Noroeste 14 Oeste 0 800.1 0.5 79
2019-05-18 23:00:00 1.1 8 Oeste 19 Oeste 0 800 0.7 77
2019-05-18 22:00:00 1.4 10 Oeste 26 Noroeste 0 799.9 0.8 76
2019-05-18 21:00:00 2.5 13 Noroeste 29 Noroeste 0 799.6 0.6 69
2019-05-18 20:00:00 3.2 16 Oeste 26 Noroeste 0 799.3 0.3 65
2019-05-18 19:00:00 4.4 17 Oeste 29 Noroeste 0 799.1 0.1 60
2019-05-18 18:00:00 3.8 15 Oeste 28 Noroeste 0 799 0 62
2019-05-18 17:00:00 3.8 14 Oeste 27 Noroeste 0 799 0.2 63
2019-05-18 16:00:00 3.6 12 Noroeste 28 Noroeste 0 799 0.4 61
2019-05-18 15:00:00 2.6 12 Oeste 24 Oeste 0 799 0.8 69
2019-05-18 14:00:00 2.9 14 Noroeste 27 Oeste 0 798.8 0.9 71
2019-05-18 13:00:00 1.3 12 Noroeste 31 Norte 0 798.6 1.1 77
2019-05-18 12:00:00 -0.1 10 Nordeste 20 Nordeste 0 798.2 1 83
2019-05-18 11:00:00 -2.4 14 Nordeste 28 Nordeste 0 797.9 0.7 97
2019-05-18 10:00:00 -2.9 15 Nordeste 27 Nordeste 0 797.5 0.3 100
2019-05-18 09:00:00 -3.4 12 Nordeste 23 Nordeste 0 797.2 -0.1 100
2019-05-18 08:00:00 -3.6 13 Norte 24 Oeste 0 797.2 -0.2 97
2019-05-18 07:00:00 -4 15 Oeste 30 Oeste 0 797.2 -0.8 100
2019-05-18 06:00:00 -3 14 Noroeste 30 Noroeste 0 797.3 -1.2 --
2019-05-18 05:00:00 -2.7 18 Noroeste 27 Noroeste 0 797.4 -1.6 --
2019-05-18 04:00:00 -2.1 16 Noroeste 25 Noroeste 0 798 -1.2 100
2019-05-18 03:00:00 -1.6 10 Norte 22 Noroeste 0 798.5 -0.8 98
2019-05-18 02:00:00 -1.2 10 Noroeste 25 Oeste 0 799 -0.3 97
2019-05-18 01:00:00 -0.9 17 Noroeste 27 Noroeste 0 799.2 0.1 99
2019-05-18 00:00:00 -0.2 14 Noroeste 28 Oeste 0 799.3 0.3 99
2019-05-17 23:00:00 0.5 12 Oeste 29 Oeste 0 799.3 0.4 99
2019-05-17 22:00:00 0.8 17 Oeste 35 Oeste 0 799.1 0.1 98
2019-05-17 21:00:00 2.3 18 Oeste 36 Oeste 0 799 0.1 83
2019-05-17 20:00:00 3.8 22 Oeste 41 Oeste 0 798.9 -0.1 72
2019-05-17 19:00:00 3.9 22 Oeste 40 Noroeste 0 799 -0.4 68
2019-05-17 18:00:00 4.7 25 Oeste 39 Oeste 0 798.9 -0.5 74
2019-05-17 17:00:00 2.6 24 Oeste 37 Oeste 0 799 -0.5 90
2019-05-17 16:00:00 2.5 23 Oeste 35 Oeste 0 799.4 -0.2 97
2019-05-17 15:00:00 2.1 15 Oeste 31 Oeste 0 799.4 0.2 100
2019-05-17 14:00:00 1 16 Oeste 34 Oeste 0 799.5 0.7 --
2019-05-17 13:00:00 0.6 22 Noroeste 35 Noroeste 0 799.6 1.3 --
2019-05-17 12:00:00 -0.1 21 Noroeste 39 Noroeste 0 799.2 1 --
2019-05-17 11:00:00 -0.5 19 Oeste 33 Oeste 0 798.8 0.7 --
2019-05-17 10:00:00 -0.8 23 Oeste 40 Oeste 0 798.3 1.2 --
2019-05-17 09:00:00 -1.4 20 Oeste 34 Oeste 0 798.2 1.4 --
2019-05-17 08:00:00 -1.5 20 Oeste 41 Oeste 0 798.1 1.3 --
2019-05-17 07:00:00 -1.4 21 Oeste 45 Noroeste 0 797.1 0.3 --
2019-05-17 06:00:00 -1.4 23 Oeste 41 Oeste 0 796.8 -0.4 --
2019-05-17 05:00:00 -1.2 19 Oeste 46 Oeste 0 796.8 -0.5 --
2019-05-17 04:00:00 -0.7 23 Noroeste 45 Oeste 0 796.8 -0.8 --
2019-05-17 03:00:00 -0.6 18 Oeste 39 Noroeste 0 797.2 -0.8 --
2019-05-17 02:00:00 0 23 Oeste 41 Oeste 0 797.3 -0.3 --
2019-05-17 01:00:00 0.5 25 Noroeste 46 Oeste 0 797.6 0.3 --
2019-05-17 00:00:00 0.9 25 Noroeste 47 Noroeste 0 798 0.7 100